Time;durP1;ratioP1;P1;durP2;ratioP2;P2;SDS_P1;SDS_P2;PMS_P1;PMS_P2;Temp;Humidity;BMP_temperature;BMP_pressure;BME280_temperature;BME280_humidity;BME280_pressure;Samples;Min_cycle;Max_cycle;Signal;HPM_P1;HPM_P2
2022/06/23 00:00:30;;;;;;;;;24.00;23.25;;;;;-143.57;100.00;65101.44;5097952;27;45450;-44
2022/06/23 00:02:58;;;;;;;;;27.50;23.00;;;;;-143.57;100.00;65101.44;5098443;27;45693;-45
2022/06/23 00:05:26;;;;;;;;;25.50;21.25;;;;;-143.57;100.00;65101.44;5097511;27;46339;-46
2022/06/23 00:07:55;;;;;;;;;22.25;21.00;;;;;-143.57;100.00;65101.44;5113451;27;45476;-45
2022/06/23 00:10:36;;;;;;;;;29.33;25.00;;;;;-143.57;100.00;65101.44;5097872;27;45323;-44
2022/06/23 00:13:03;;;;;;;;;27.00;24.25;;;;;-143.57;100.00;65101.44;5098077;27;45736;-44
2022/06/23 00:15:41;;;;;;;;;24.25;24.00;;;;;-143.57;100.00;65101.44;5097488;27;46248;-45
2022/06/23 00:18:16;;;;;;;;;27.75;23.50;;;;;-143.57;100.00;65101.44;5097206;27;45293;-44
2022/06/23 00:20:50;;;;;;;;;21.75;21.25;;;;;-143.57;100.00;65101.44;5097480;27;45338;-45
2022/06/23 00:23:20;;;;;;;;;21.25;20.75;;;;;-143.57;100.00;65101.44;5097469;27;45459;-45
2022/06/23 00:25:58;;;;;;;;;26.75;24.75;;;;;-143.57;100.00;65101.44;5097373;27;45538;-44
2022/06/23 00:28:33;;;;;;;;;22.50;22.50;;;;;-143.57;100.00;65101.44;5097119;27;45297;-44
2022/06/23 00:31:05;;;;;;;;;26.75;24.25;;;;;-143.57;100.00;65101.44;5097606;27;45404;-46
2022/06/23 00:33:41;;;;;;;;;26.33;23.67;;;;;-143.57;100.00;65101.44;5097536;27;45507;-45
2022/06/23 00:36:38;;;;;;;;;24.00;22.67;;;;;-143.57;100.00;65101.44;5098713;27;45981;-44
2022/06/23 00:39:19;;;;;;;;;21.75;20.50;;;;;-143.57;100.00;65101.44;5037836;28;45386;-45
2022/06/23 00:41:46;;;;;;;;;23.50;23.50;;;;;-143.57;100.00;65101.44;5037847;28;45453;-46
2022/06/23 00:44:31;;;;;;;;;22.75;21.25;;;;;-143.57;100.00;65101.44;5037826;28;45359;-46
2022/06/23 00:47:02;;;;;;;;;32.25;25.25;;;;;-143.57;100.00;65101.44;5037486;28;45531;-46
2022/06/23 00:49:41;;;;;;;;;27.25;24.75;;;;;-143.57;100.00;65101.44;5037726;28;45356;-46
2022/06/23 00:52:19;;;;;;;;;24.50;22.00;;;;;-143.57;100.00;65101.44;5037737;28;45399;-45
2022/06/23 00:54:51;;;;;;;;;25.25;22.00;;;;;-143.57;100.00;65101.44;5037866;28;45662;-47
2022/06/23 00:57:41;;;;;;;;;23.75;19.00;;;;;-143.57;100.00;65101.44;5037377;28;46222;-47
2022/06/23 01:00:19;;;;;;;;;20.00;18.50;;;;;-143.57;100.00;65101.44;5037388;28;45553;-46
2022/06/23 01:02:55;;;;;;;;;22.00;20.00;;;;;-143.57;100.00;65101.44;5037821;28;45428;-47
2022/06/23 01:05:29;;;;;;;;;20.50;19.25;;;;;-143.57;100.00;65101.44;5037723;28;45473;-46
2022/06/23 01:08:28;;;;;;;;;17.25;17.25;;;;;-143.57;100.00;65101.44;5037171;28;46140;-48
2022/06/23 01:11:23;;;;;;;;;21.00;20.00;;;;;-143.57;100.00;65101.44;4997632;28;45360;-45
2022/06/23 01:14:13;;;;;;;;;24.25;23.25;;;;;-143.57;100.00;65101.44;4997657;28;45388;-47
2022/06/23 01:17:14;;;;;;;;;26.33;23.67;;;;;-143.57;100.00;65101.44;5037792;28;45305;-45
2022/06/23 01:19:58;;;;;;;;;27.00;25.00;;;;;-143.57;100.00;65101.44;4977529;28;46118;-46
2022/06/23 01:22:28;;;;;;;;;24.67;24.00;;;;;-143.57;100.00;65101.44;4977540;28;45405;-45
2022/06/23 01:24:56;;;;;;;;;32.67;29.33;;;;;-143.57;100.00;65101.44;4978082;28;45282;-46
2022/06/23 01:27:42;;;;;;;;;31.67;27.67;;;;;-143.57;100.00;65101.44;4978096;28;45317;-46
2022/06/23 01:30:10;;;;;;;;;24.67;23.00;;;;;-143.57;100.00;65101.44;4977277;28;46352;-47
2022/06/23 01:32:39;;;;;;;;;25.67;25.33;;;;;-143.57;100.00;65101.44;4977550;28;45266;-48
2022/06/23 01:35:24;;;;;;;;;31.00;29.00;;;;;-143.57;100.00;65101.44;4977800;28;45526;-48
2022/06/23 01:37:58;;;;;;;;;31.67;28.67;;;;;-143.57;100.00;65101.44;4977923;28;45322;-46
2022/06/23 01:40:31;;;;;;;;;30.33;26.67;;;;;-143.57;100.00;65101.44;4977395;28;46290;-47
2022/06/23 01:43:11;;;;;;;;;28.67;26.00;;;;;-143.57;100.00;65101.44;4977350;28;45295;-45
2022/06/23 01:45:48;;;;;;;;;32.33;29.00;;;;;-143.57;100.00;65101.44;4977718;28;45387;-47
2022/06/23 01:48:52;;;;;;;;;29.67;27.00;;;;;-143.57;100.00;65101.44;5012664;28;45443;-48
2022/06/23 01:51:28;;;;;;;;;25.67;24.00;;;;;-143.57;100.00;65101.44;4977105;28;45462;-48
2022/06/23 01:54:07;;;;;;;;;24.00;22.00;;;;;-143.57;100.00;65101.44;4977391;28;45272;-51
2022/06/23 01:56:52;;;;;;;;;30.00;27.67;;;;;-143.57;100.00;65101.44;5019186;28;45346;-50
2022/06/23 01:59:29;;;;;;;;;30.00;28.67;;;;;-143.57;100.00;65101.44;5056892;28;45554;-50
2022/06/23 02:02:10;;;;;;;;;27.33;26.33;;;;;-143.57;100.00;65101.44;5056728;28;45594;-45
2022/06/23 02:05:17;;;;;;;;;35.33;28.00;;;;;-143.57;100.00;65101.44;5056667;28;45424;-46
2022/06/23 02:07:53;;;;;;;;;28.33;25.33;;;;;-143.57;100.00;65101.44;5056934;28;45553;-47
2022/06/23 02:10:21;;;;;;;;;28.00;25.67;;;;;-143.57;100.00;65101.44;5056957;28;45412;-47
2022/06/23 02:12:57;;;;;;;;;30.67;29.33;;;;;-143.57;100.00;65101.44;5056255;28;46216;-49
2022/06/23 02:15:40;;;;;;;;;28.00;27.67;;;;;-143.57;100.00;65101.44;5056504;28;45431;-46
2022/06/23 02:18:16;;;;;;;;;31.33;27.33;;;;;-143.57;100.00;65101.44;5056891;28;45459;-48
2022/06/23 02:21:18;;;;;;;;;29.33;28.00;;;;;-143.57;100.00;65101.44;5056695;27;45331;-48
2022/06/23 02:23:49;;;;;;;;;29.25;24.00;;;;;-143.57;100.00;65101.44;5056557;28;46335;-47
2022/06/23 02:26:40;;;;;;;;;31.00;28.67;;;;;-143.57;100.00;65101.44;5056279;28;45368;-44
2022/06/23 02:29:27;;;;;;;;;31.33;28.00;;;;;-143.57;100.00;65101.44;5094463;27;45416;-51
2022/06/23 02:32:13;;;;;;;;;32.00;27.00;;;;;-143.57;100.00;65101.44;5099469;27;45255;-51
2022/06/23 02:35:07;;;;;;;;;28.67;27.33;;;;;-143.57;100.00;65101.44;5099064;27;45350;-49
2022/06/23 02:37:54;;;;;;;;;32.33;29.33;;;;;-143.57;100.00;65101.44;5099187;27;45880;-49
2022/06/23 02:40:26;;;;;;;;;31.67;26.67;;;;;-143.57;100.00;65101.44;5099254;27;45420;-45
2022/06/23 02:42:59;;;;;;;;;29.00;26.33;;;;;-143.57;100.00;65101.44;5099087;27;45414;-47
2022/06/23 02:45:27;;;;;;;;;26.33;22.67;;;;;-143.57;100.00;65101.44;5098805;27;47174;-46
2022/06/23 02:48:04;;;;;;;;;22.33;22.33;;;;;-143.57;100.00;65101.44;5099085;27;45393;-47
2022/06/23 02:51:08;;;;;;;;;28.67;26.00;;;;;-143.57;100.00;65101.44;5099048;27;45475;-46
2022/06/23 02:53:49;;;;;;;;;10.50;9.50;;;;;-143.57;100.00;65101.44;5036394;28;45558;-49
2022/06/23 02:56:47;;;;;;;;;12.00;10.25;;;;;-143.57;100.00;65101.44;5035650;28;46179;-46
2022/06/23 02:59:25;;;;;;;;;10.75;10.75;;;;;-143.57;100.00;65101.44;5035394;28;45422;-48
2022/06/23 03:02:01;;;;;;;;;7.75;6.50;;;;;-143.57;100.00;65101.44;5035722;28;45367;-43
2022/06/23 03:04:35;;;;;;;;;6.25;5.00;;;;;-143.57;100.00;65101.44;5036015;28;45478;-44
2022/06/23 03:07:23;;;;;;;;;6.00;6.00;;;;;-143.57;100.00;65101.44;5035539;28;46580;-45
2022/06/23 03:10:04;;;;;;;;;6.00;4.50;;;;;-143.57;100.00;65101.44;5034763;28;45347;-50
2022/06/23 03:12:39;;;;;;;;;6.25;5.00;;;;;-143.57;100.00;65101.44;5035452;28;45426;-46
2022/06/23 03:15:21;;;;;;;;;4.00;4.00;;;;;-143.57;100.00;65101.44;5035868;28;45451;-44
2022/06/23 03:17:57;;;;;;;;;4.25;4.00;;;;;-143.57;100.00;65101.44;5035904;28;47171;-50
2022/06/23 03:20:25;;;;;;;;;4.00;4.00;;;;;-143.57;100.00;65101.44;5035499;28;45360;-46
2022/06/23 03:23:15;;;;;;;;;4.25;4.25;;;;;-143.57;100.00;65101.44;5035334;28;45340;-49
2022/06/23 03:25:49;;;;;;;;;3.00;3.00;;;;;-143.57;100.00;65101.44;5035727;28;45580;-48
2022/06/23 03:28:23;;;;;;;;;3.25;3.25;;;;;-143.57;100.00;65101.44;5084555;27;46133;-46
2022/06/23 03:31:16;;;;;;;;;5.00;4.00;;;;;-143.57;100.00;65101.44;5098458;27;45383;-46
2022/06/23 03:34:00;;;;;;;;;5.50;4.25;;;;;-143.57;100.00;65101.44;5098631;27;45405;-45
2022/06/23 03:36:35;;;;;;;;;3.75;3.00;;;;;-143.57;100.00;65101.44;5098693;27;45527;-45
2022/06/23 03:42:06;;;;;;;;;3.25;3.25;;;;;-143.57;100.00;65101.44;5098253;27;45486;-46
2022/06/23 03:44:42;;;;;;;;;5.50;3.75;;;;;-143.57;100.00;65101.44;5098166;27;45408;-46
2022/06/23 03:47:26;;;;;;;;;4.00;4.00;;;;;-143.57;100.00;65101.44;5098549;27;45473;-45
2022/06/23 03:50:21;;;;;;;;;5.50;5.00;;;;;-143.57;100.00;65101.44;5098049;27;46276;-49
2022/06/23 03:52:53;;;;;;;;;5.00;4.00;;;;;-143.57;100.00;65101.44;5097474;27;45362;-47
2022/06/23 03:55:42;;;;;;;;;5.75;4.50;;;;;-143.57;100.00;65101.44;5098485;27;45478;-50
2022/06/23 03:58:18;;;;;;;;;5.00;4.25;;;;;-143.57;100.00;65101.44;5098312;27;45370;-50
2022/06/23 04:01:04;;;;;;;;;4.00;4.00;;;;;-143.57;100.00;65101.44;5097731;27;45541;-43
2022/06/23 04:03:59;;;;;;;;;4.75;4.00;;;;;-143.57;100.00;65101.44;5098067;27;45453;-48
2022/06/23 04:06:32;;;;;;;;;3.25;3.00;;;;;-143.57;100.00;65101.44;5096301;27;45429;-44
2022/06/23 04:09:21;;;;;;;;;4.50;4.50;;;;;-143.57;100.00;65101.44;5098022;27;45478;-45
2022/06/23 04:12:05;;;;;;;;;6.00;4.50;;;;;-143.57;100.00;65101.44;5096785;27;46198;-43
2022/06/23 04:14:33;;;;;;;;;3.75;3.50;;;;;-143.57;100.00;65101.44;5097744;27;45354;-48
2022/06/23 04:17:19;;;;;;;;;5.00;3.25;;;;;-143.57;100.00;65101.44;5097781;27;45537;-46
2022/06/23 04:19:52;;;;;;;;;4.00;4.00;;;;;-143.57;100.00;65101.44;5086741;27;45535;-44
2022/06/23 04:22:38;;;;;;;;;6.75;5.00;;;;;-143.57;100.00;65101.44;5097587;27;45386;-47
2022/06/23 04:25:07;;;;;;;;;7.25;5.25;;;;;-143.57;100.00;65101.44;5097774;27;45443;-48
2022/06/23 04:27:56;;;;;;;;;6.25;6.00;;;;;-143.57;100.00;65101.44;5097597;27;45274;-46
2022/06/23 04:30:28;;;;;;;;;5.00;5.00;;;;;-143.57;100.00;65101.44;5097629;27;45506;-47
2022/06/23 04:32:56;;;;;;;;;6.75;4.00;;;;;-143.57;100.00;65101.44;5097324;27;47317;-46
2022/06/23 04:35:36;;;;;;;;;8.00;4.00;;;;;-143.57;100.00;65101.44;5097401;27;45436;-44
2022/06/23 04:38:24;;;;;;;;;4.00;3.75;;;;;-143.57;100.00;65101.44;5097549;27;45373;-46
2022/06/23 04:40:57;;;;;;;;;4.75;3.75;;;;;-143.57;100.00;65101.44;5097777;27;45333;-49
2022/06/23 04:43:41;;;;;;;;;2.50;2.50;;;;;-143.57;100.00;65101.44;5096952;27;46342;-49
2022/06/23 04:46:09;;;;;;;;;4.00;4.00;;;;;-143.57;100.00;65101.44;5097136;27;45346;-46
2022/06/23 04:48:53;;;;;;;;;4.50;4.50;;;;;-143.57;100.00;65101.44;5097491;27;45258;-46
2022/06/23 04:51:37;;;;;;;;;5.00;4.00;;;;;-143.57;100.00;65101.44;5097567;27;45416;-48
2022/06/23 04:54:14;;;;;;;;;5.00;3.50;;;;;-143.57;100.00;65101.44;5096933;27;46188;-47
2022/06/23 04:57:04;;;;;;;;;4.75;3.75;;;;;-143.57;100.00;65101.44;5097159;27;45393;-45
2022/06/23 04:59:38;;;;;;;;;4.25;4.00;;;;;-143.57;100.00;65101.44;5097298;27;45474;-47
2022/06/23 05:02:19;;;;;;;;;5.75;5.75;;;;;-143.57;100.00;65101.44;5096398;27;45386;-46
2022/06/23 05:04:54;;;;;;;;;7.00;5.00;;;;;-143.57;100.00;65101.44;5096787;27;46281;-44
2022/06/23 05:07:32;;;;;;;;;5.50;4.75;;;;;-143.57;100.00;65101.44;5097011;27;45165;-46
2022/06/23 05:10:02;;;;;;;;;6.50;5.75;;;;;-143.57;100.00;65101.44;5097277;27;45366;-47
2022/06/23 05:12:33;;;;;;;;;5.25;5.00;;;;;-143.57;100.00;65101.44;5097299;27;45487;-46
2022/06/23 05:15:11;;;;;;;;;4.00;4.00;;;;;-143.57;100.00;65101.44;5096905;27;46004;-49
2022/06/23 05:17:47;;;;;;;;;3.00;3.00;;;;;-143.57;100.00;65101.44;5096691;27;45254;-46
2022/06/23 05:20:19;;;;;;;;;6.50;4.00;;;;;-143.57;100.00;65101.44;5097153;27;45324;-52
2022/06/23 05:22:47;;;;;;;;;5.00;4.00;;;;;-143.57;100.00;65101.44;5099466;27;45387;-48
2022/06/23 05:25:15;;;;;;;;;5.00;5.00;;;;;-143.57;100.00;65101.44;5100144;27;46239;-44
2022/06/23 05:27:45;;;;;;;;;4.75;4.00;;;;;-143.57;100.00;65101.44;5100384;27;45520;-47
2022/06/23 05:30:30;;;;;;;;;4.50;4.50;;;;;-143.57;100.00;65101.44;5100364;27;45288;-49
2022/06/23 05:33:04;;;;;;;;;4.50;4.00;;;;;-143.57;100.00;65101.44;5100337;27;45384;-45
2022/06/23 05:35:42;;;;;;;;;3.50;3.50;;;;;-143.57;100.00;65101.44;5100097;27;46328;-51
2022/06/23 05:38:33;;;;;;;;;6.25;4.75;;;;;-143.57;100.00;65101.44;5100228;27;45294;-45
2022/06/23 05:41:03;;;;;;;;;4.50;4.50;;;;;-143.57;100.00;65101.44;5100250;27;45399;-49
2022/06/23 05:43:33;;;;;;;;;4.50;4.50;;;;;-143.57;100.00;65101.44;5100604;27;45481;-47
2022/06/23 05:46:01;;;;;;;;;5.75;4.50;;;;;-143.57;100.00;65101.44;5099680;27;47362;-53
2022/06/23 05:48:37;;;;;;;;;6.00;5.00;;;;;-143.57;100.00;65101.44;5099812;27;45359;-48
2022/06/23 05:51:09;;;;;;;;;8.50;6.00;;;;;-143.57;100.00;65101.44;5100135;27;45414;-48
2022/06/23 05:53:40;;;;;;;;;5.00;5.00;;;;;-143.57;100.00;65101.44;5100307;27;45366;-47
2022/06/23 05:56:14;;;;;;;;;5.25;4.75;;;;;-143.57;100.00;65101.44;5099887;27;45451;-44
2022/06/23 05:58:49;;;;;;;;;4.75;4.75;;;;;-143.57;100.00;65101.44;5099745;27;45229;-48
2022/06/23 06:01:39;;;;;;;;;7.50;4.75;;;;;-143.57;100.00;65101.44;5099999;27;45348;-48
2022/06/23 06:04:15;;;;;;;;;11.50;7.00;;;;;-143.57;100.00;65101.44;5100180;27;45500;-49
2022/06/23 06:06:41;;;;;;;;;4.50;4.50;;;;;-143.57;100.00;65101.44;5099713;27;45417;-47
2022/06/23 06:11:58;;;;;;;;;5.50;5.00;;;;;-143.57;100.00;65101.44;5099627;27;45259;-50
2022/06/23 06:14:28;;;;;;;;;8.25;5.25;;;;;-143.57;100.00;65101.44;5099938;27;45358;-44
2022/06/23 06:16:57;;;;;;;;;7.00;7.00;;;;;-143.57;100.00;65101.44;5099307;27;46441;-48
2022/06/23 06:19:24;;;;;;;;;8.50;7.00;;;;;-143.57;100.00;65101.44;5099516;27;45544;-44
2022/06/23 06:21:55;;;;;;;;;8.00;6.25;;;;;-143.57;100.00;65101.44;5099462;27;45350;-44
2022/06/23 06:24:26;;;;;;;;;8.00;6.25;;;;;-143.57;100.00;65101.44;5099578;27;45365;-44
2022/06/23 06:26:54;;;;;;;;;6.75;6.00;;;;;-143.57;100.00;65101.44;5099336;27;46209;-44
2022/06/23 06:29:31;;;;;;;;;8.00;6.00;;;;;-143.57;100.00;65101.44;5099496;27;45287;-46
2022/06/23 06:32:16;;;;;;;;;9.25;7.25;;;;;-143.57;100.00;65101.44;5099296;27;45390;-45
2022/06/23 06:34:54;;;;;;;;;6.75;6.25;;;;;-143.57;100.00;65101.44;5099040;27;45864;-49
2022/06/23 06:37:27;;;;;;;;;7.50;5.00;;;;;-143.57;100.00;65101.44;5115116;27;46630;-47
2022/06/23 06:39:57;;;;;;;;;9.00;6.80;;;;;-143.57;100.00;65101.44;5099138;27;45362;-47
2022/06/23 06:42:58;;;;;;;;;8.00;8.00;;;;;-143.57;100.00;65101.44;5099404;27;45238;-47
2022/06/23 06:45:28;;;;;;;;;7.50;6.25;;;;;-143.57;100.00;65101.44;5036337;28;45436;-45
2022/06/23 06:47:53;;;;;;;;;6.75;6.00;;;;;-143.57;100.00;65101.44;5035838;28;46227;-50
2022/06/23 06:50:18;;;;;;;;;5.00;5.00;;;;;-143.57;100.00;65101.44;5036010;28;45478;-51
2022/06/23 06:52:45;;;;;;;;;5.50;5.00;;;;;-143.57;100.00;65101.44;5036160;28;45234;-49
2022/06/23 06:55:20;;;;;;;;;11.40;6.40;;;;;-143.57;100.00;65101.44;5036170;28;45488;-46
2022/06/23 06:57:56;;;;;;;;;7.40;6.00;;;;;-143.57;100.00;65101.44;5035552;28;46384;-51
2022/06/23 07:00:28;;;;;;;;;5.80;4.80;;;;;-143.57;100.00;65101.44;5035921;28;45363;-52
2022/06/23 07:02:53;;;;;;;;;5.80;5.00;;;;;-143.57;100.00;65101.44;5035893;28;45316;-49
2022/06/23 07:05:41;;;;;;;;;6.00;6.00;;;;;-143.57;100.00;65101.44;5035112;28;45489;-46
2022/06/23 07:08:16;;;;;;;;;6.80;6.80;;;;;-143.57;100.00;65101.44;5035148;28;46107;-49
2022/06/23 07:10:41;;;;;;;;;8.80;6.20;;;;;-143.57;100.00;65101.44;5034242;28;45532;-48
2022/06/23 07:13:33;;;;;;;;;8.00;6.00;;;;;-143.57;100.00;65101.44;5034734;28;45481;-47
2022/06/23 07:16:24;;;;;;;;;5.40;5.40;;;;;-143.57;100.00;65101.44;5034617;28;45522;-48
2022/06/23 07:19:09;;;;;;;;;7.20;5.00;;;;;-143.57;100.00;65101.44;5028701;28;46124;-48
2022/06/23 07:21:38;;;;;;;;;8.20;4.20;;;;;-143.57;100.00;65101.44;5082063;27;45266;-48
2022/06/23 07:24:12;;;;;;;;;5.40;4.20;;;;;-143.57;100.00;65101.44;5097381;27;45338;-46
2022/06/23 07:27:09;;;;;;;;;7.20;4.20;;;;;-143.57;100.00;65101.44;5097353;27;45216;-46
2022/06/23 07:29:44;;;;;;;;;4.60;4.60;;;;;-143.57;100.00;65101.44;5097043;27;45438;-50
2022/06/23 07:32:39;;;;;;;;;7.80;5.20;;;;;-143.57;100.00;65101.44;5096710;27;45497;-49
2022/06/23 07:35:39;;;;;;;;;5.00;5.00;;;;;-143.57;100.00;65101.44;5097218;27;45370;-46
2022/06/23 07:38:28;;;;;;;;;6.60;5.00;;;;;-143.57;100.00;65101.44;5097326;27;45282;-45
2022/06/23 07:41:01;;;;;;;;;5.00;4.00;;;;;-143.57;100.00;65101.44;5096877;27;45484;-50
2022/06/23 07:43:34;;;;;;;;;5.60;4.60;;;;;-143.57;100.00;65101.44;5096840;27;45377;-46
2022/06/23 07:46:01;;;;;;;;;5.60;5.60;;;;;-143.57;100.00;65101.44;5096183;27;45426;-47
2022/06/23 07:48:31;;;;;;;;;4.80;3.40;;;;;-143.57;100.00;65101.44;5097053;27;45507;-50
2022/06/23 07:50:58;;;;;;;;;7.00;6.40;;;;;-143.57;100.00;65101.44;5096466;27;45429;-46
2022/06/23 07:53:51;;;;;;;;;6.40;5.00;;;;;-143.57;100.00;65101.44;5096982;27;45330;-45
2022/06/23 07:56:21;;;;;;;;;7.00;6.00;;;;;-143.57;100.00;65101.44;5094556;27;45526;-47
2022/06/23 07:58:50;;;;;;;;;4.40;4.40;;;;;-143.57;100.00;65101.44;5097145;27;45357;-47
2022/06/23 08:01:26;;;;;;;;;4.20;4.20;;;;;-143.57;100.00;65101.44;5096692;27;46265;-46
2022/06/23 08:03:57;;;;;;;;;10.00;5.40;;;;;-143.57;100.00;65101.44;5096587;27;45398;-52
2022/06/23 08:06:24;;;;;;;;;5.80;5.80;;;;;-143.57;100.00;65101.44;5097144;27;45379;-45
2022/06/23 08:08:55;;;;;;;;;4.00;4.00;;;;;-143.57;100.00;65101.44;5096978;27;45280;-47
2022/06/23 08:14:13;;;;;;;;;6.20;6.20;;;;;-143.57;100.00;65101.44;5096522;27;45419;-49
2022/06/23 08:16:51;;;;;;;;;4.00;3.60;;;;;-143.57;100.00;65101.44;5096720;27;45394;-47
2022/06/23 08:19:24;;;;;;;;;7.20;5.80;;;;;-143.57;100.00;65101.44;5096591;27;45552;-45
2022/06/23 08:22:09;;;;;;;;;8.80;4.00;;;;;-143.57;100.00;65101.44;5095962;27;46240;-47
2022/06/23 08:24:38;;;;;;;;;4.00;4.00;;;;;-143.57;100.00;65101.44;5096263;27;45485;-51
2022/06/23 08:27:10;;;;;;;;;4.80;3.80;;;;;-143.57;100.00;65101.44;5096755;27;45390;-45
2022/06/23 08:29:44;;;;;;;;;4.80;4.80;;;;;-143.57;100.00;65101.44;5096717;27;45442;-48
2022/06/23 08:32:10;;;;;;;;;5.60;5.60;;;;;-143.57;100.00;65101.44;5096284;27;45487;-50
2022/06/23 08:34:40;;;;;;;;;6.25;4.75;;;;;-143.57;100.00;65101.44;5096072;27;45354;-48
2022/06/23 08:37:16;;;;;;;;;5.20;5.00;;;;;-143.57;100.00;65101.44;5095644;27;45457;-49
2022/06/23 08:40:12;;;;;;;;;6.80;6.20;;;;;-143.57;100.00;65101.44;5096363;27;45611;-46
2022/06/23 08:42:51;;;;;;;;;4.80;4.40;;;;;-143.57;100.00;65101.44;5096137;27;47364;-45
2022/06/23 08:45:38;;;;;;;;;4.20;4.20;;;;;-143.57;100.00;65101.44;5096026;27;45370;-45
2022/06/23 08:48:28;;;;;;;;;6.60;5.40;;;;;-143.57;100.00;65101.44;5095926;27;45402;-46
2022/06/23 08:51:11;;;;;;;;;5.60;5.00;;;;;-143.57;100.00;65101.44;5096190;27;45551;-48
2022/06/23 08:54:15;;;;;;;;;5.60;4.00;;;;;-143.57;100.00;65101.44;5095914;27;46149;-50
2022/06/23 08:56:51;;;;;;;;;4.00;4.00;;;;;-143.57;100.00;65101.44;5096771;27;45394;-51
2022/06/23 08:59:33;;;;;;;;;4.00;4.00;;;;;-143.57;100.00;65101.44;5099876;27;45506;-51
2022/06/23 09:02:22;;;;;;;;;4.40;4.40;;;;;-143.57;100.00;65101.44;5099886;27;45397;-51
2022/06/23 09:04:59;;;;;;;;;6.00;6.00;;;;;-143.57;100.00;65101.44;5098848;27;45467;-48
2022/06/23 09:07:42;;;;;;;;;4.00;2.80;;;;;-143.57;100.00;65101.44;5099339;27;45338;-50
2022/06/23 09:10:31;;;;;;;;;4.20;4.20;;;;;-143.57;100.00;65101.44;5099337;27;45400;-50
2022/06/23 09:13:16;;;;;;;;;9.20;6.20;;;;;-143.57;100.00;65101.44;5099487;27;45454;-47
2022/06/23 09:16:03;;;;;;;;;5.20;5.20;;;;;-143.57;100.00;65101.44;5099126;27;45374;-50
2022/06/23 09:18:46;;;;;;;;;4.80;4.80;;;;;-143.57;100.00;65101.44;5099035;27;45252;-50
2022/06/23 09:21:30;;;;;;;;;6.80;4.60;;;;;-143.57;100.00;65101.44;5099493;27;45373;-52
2022/06/23 09:24:23;;;;;;;;;5.40;5.00;;;;;-143.57;100.00;65101.44;5099781;27;45271;-48
2022/06/23 09:26:58;;;;;;;;;4.60;3.60;;;;;-143.57;100.00;65101.44;5098997;27;45449;-48
2022/06/23 09:29:39;;;;;;;;;5.00;5.00;;;;;-143.57;100.00;65101.44;5098098;27;45449;-46
2022/06/23 09:32:13;;;;;;;;;6.20;5.80;;;;;-143.57;100.00;65101.44;5099242;27;45339;-47
2022/06/23 09:35:00;;;;;;;;;5.00;5.00;;;;;-143.57;100.00;65101.44;5099043;27;45839;-47
2022/06/23 09:37:36;;;;;;;;;5.00;3.80;;;;;-143.57;100.00;65101.44;5098713;27;46032;-50
2022/06/23 09:40:33;;;;;;;;;5.60;5.60;;;;;-143.57;100.00;65101.44;5098791;27;45565;-47
2022/06/23 09:43:20;;;;;;;;;6.60;5.60;;;;;-143.57;100.00;65101.44;5098977;27;45299;-47
2022/06/23 09:45:58;;;;;;;;;5.80;5.00;;;;;-143.57;100.00;65101.44;5099199;27;45256;-48
2022/06/23 09:48:26;;;;;;;;;4.40;4.40;;;;;-143.57;100.00;65101.44;5098817;27;45468;-45
2022/06/23 09:51:10;;;;;;;;;4.80;4.40;;;;;-143.57;100.00;65101.44;5098827;27;46022;-46
2022/06/23 09:54:12;;;;;;;;;6.20;6.00;;;;;-143.57;100.00;65101.44;5098821;27;45398;-47
2022/06/23 09:57:08;;;;;;;;;4.80;4.60;;;;;-143.57;100.00;65101.44;5099146;27;45425;-45
2022/06/23 09:59:56;;;;;;;;;5.60;5.60;;;;;-143.57;100.00;65101.44;5098041;27;45405;-45
2022/06/23 10:02:42;;;;;;;;;6.40;5.80;;;;;-143.57;100.00;65101.44;5098642;27;45476;-45
2022/06/23 10:05:32;;;;;;;;;4.20;3.40;;;;;-143.57;100.00;65101.44;5098428;27;45552;-45
2022/06/23 10:08:22;;;;;;;;;4.80;4.80;;;;;-143.57;100.00;65101.44;5097717;27;45615;-46
2022/06/23 10:11:06;;;;;;;;;5.60;5.60;;;;;-143.57;100.00;65101.44;5098137;27;46228;-49
2022/06/23 10:14:15;;;;;;;;;7.80;5.40;;;;;-143.57;100.00;65101.44;5098473;27;45468;-46
2022/06/23 10:17:07;;;;;;;;;8.00;6.40;;;;;-143.57;100.00;65101.44;5097745;27;45468;-46
2022/06/23 10:19:35;;;;;;;;;5.80;5.80;;;;;-143.57;100.00;65101.44;5098388;27;45498;-44
2022/06/23 10:22:24;;;;;;;;;7.00;7.00;;;;;-143.57;100.00;65101.44;5079438;27;46297;-47
2022/06/23 10:24:53;;;;;;;;;8.20;6.20;;;;;-143.57;100.00;65101.44;5098318;27;45323;-45
2022/06/23 10:27:24;;;;;;;;;7.00;7.00;;;;;-143.57;100.00;65101.44;5098414;27;45535;-45
2022/06/23 10:30:08;;;;;;;;;5.00;5.00;;;;;-143.57;100.00;65101.44;5098359;27;45484;-45
2022/06/23 10:33:05;;;;;;;;;6.80;6.80;;;;;-143.57;100.00;65101.44;5097689;27;45460;-45
2022/06/23 10:35:49;;;;;;;;;4.80;4.80;;;;;-143.57;100.00;65101.44;5093938;27;45429;-46
2022/06/23 10:38:59;;;;;;;;;5.40;5.40;;;;;-143.57;100.00;65101.44;5097768;27;45278;-46
2022/06/23 10:41:42;;;;;;;;;6.00;4.20;;;;;-143.57;100.00;65101.44;5073898;27;45482;-50
2022/06/23 10:44:35;;;;;;;;;3.40;3.40;;;;;-143.57;100.00;65101.44;5097891;27;46212;-45
2022/06/23 10:47:31;;;;;;;;;6.60;6.60;;;;;-143.57;100.00;65101.44;5097995;27;45557;-47
2022/06/23 10:50:09;;;;;;;;;9.60;7.00;;;;;-143.57;100.00;65101.44;5097110;27;45779;-49
2022/06/23 10:52:34;;;;;;;;;7.40;7.40;;;;;-143.57;100.00;65101.44;5097918;27;45386;-48
2022/06/23 10:55:41;;;;;;;;;7.50;5.75;;;;;-143.57;100.00;65101.44;5097089;27;46228;-46
2022/06/23 10:58:22;;;;;;;;;11.60;10.60;;;;;-143.57;100.00;65101.44;5090208;27;45394;-48
2022/06/23 11:01:08;;;;;;;;;10.40;8.40;;;;;-143.57;100.00;65101.44;5075118;27;45518;-46
2022/06/23 11:04:01;;;;;;;;;6.80;5.60;;;;;-143.57;100.00;65101.44;5097996;27;45417;-46
2022/06/23 11:06:52;;;;;;;;;6.60;6.60;;;;;-143.57;100.00;65101.44;5097495;27;46017;-45
2022/06/23 11:09:31;;;;;;;;;10.00;6.20;;;;;-143.57;100.00;65101.44;5079174;27;45389;-44
2022/06/23 11:12:34;;;;;;;;;10.60;7.00;;;;;-143.57;100.00;65101.44;5097618;27;45497;-46
2022/06/23 11:15:21;;;;;;;;;5.60;4.80;;;;;-143.57;100.00;65101.44;5099281;27;45311;-46
2022/06/23 11:18:17;;;;;;;;;6.80;6.80;;;;;-143.57;100.00;65101.44;5098777;27;46317;-46
2022/06/23 11:20:45;;;;;;;;;12.60;9.60;;;;;-143.57;100.00;65101.44;5098521;27;45375;-45
2022/06/23 11:23:20;;;;;;;;;9.40;8.00;;;;;-143.57;100.00;65101.44;5098800;27;45347;-46
2022/06/23 11:25:55;;;;;;;;;8.40;8.20;;;;;-143.57;100.00;65101.44;5098921;27;45265;-45
2022/06/23 11:28:23;;;;;;;;;7.00;7.00;;;;;-143.57;100.00;65101.44;5098551;27;46177;-46
2022/06/23 11:31:09;;;;;;;;;7.80;6.00;;;;;-143.57;100.00;65101.44;5098680;27;45269;-46
2022/06/23 11:33:58;;;;;;;;;7.60;7.60;;;;;-143.57;100.00;65101.44;5098410;27;45247;-45
2022/06/23 11:36:50;;;;;;;;;9.60;8.80;;;;;-143.57;100.00;65101.44;5097833;27;45501;-45
2022/06/23 11:39:36;;;;;;;;;8.00;8.00;;;;;-143.57;100.00;65101.44;5033486;28;46997;-45
2022/06/23 11:42:04;;;;;;;;;7.40;7.40;;;;;-143.57;100.00;65101.44;5034016;28;45731;-48
2022/06/23 11:44:43;;;;;;;;;11.00;9.20;;;;;-143.57;100.00;65101.44;5033770;28;45575;-46
2022/06/23 11:47:27;;;;;;;;;8.00;8.00;;;;;-143.57;100.00;65101.44;5034007;28;45390;-47
2022/06/23 11:50:07;;;;;;;;;9.00;8.80;;;;;-143.57;100.00;65101.44;5033172;28;46283;-46
2022/06/23 11:52:50;;;;;;;;;10.40;7.60;;;;;-143.57;100.00;65101.44;5033204;28;45893;-45
2022/06/23 11:55:31;;;;;;;;;12.20;9.40;;;;;-143.57;100.00;65101.44;5033608;28;45495;-47
2022/06/23 11:58:16;;;;;;;;;7.00;7.00;;;;;-143.57;100.00;65101.44;5033441;28;45584;-48
2022/06/23 12:01:13;;;;;;;;;9.00;9.00;;;;;-143.57;100.00;65101.44;5032216;28;46155;-48
2022/06/23 12:04:03;;;;;;;;;7.80;7.00;;;;;-143.57;100.00;65101.44;5033176;28;45511;-46
2022/06/23 12:06:56;;;;;;;;;12.00;11.00;;;;;-143.57;100.00;65101.44;5033058;28;45689;-45
2022/06/23 12:10:01;;;;;;;;;7.20;6.60;;;;;-143.57;100.00;65101.44;5033363;28;45447;-45